createdAt,value
2018-06-28T00:00:01.622Z,101067.93
2018-06-28T00:02:29.568Z,101067.98
2018-06-28T00:04:57.474Z,101069.25
2018-06-28T00:07:25.410Z,101070.00
2018-06-28T00:09:53.346Z,101064.69
2018-06-28T00:12:21.289Z,101071.17
2018-06-28T00:14:49.288Z,101072.74
2018-06-28T00:17:17.185Z,101076.78
2018-06-28T00:19:45.157Z,101076.55
2018-06-28T00:22:13.056Z,101070.02
2018-06-28T00:24:40.967Z,101079.55
2018-06-28T00:27:08.901Z,101073.58
2018-06-28T00:29:36.831Z,101079.20
2018-06-28T00:32:04.790Z,101083.06
2018-06-28T00:34:32.750Z,101074.66
2018-06-28T00:37:00.605Z,101079.52
2018-06-28T00:39:28.461Z,101079.70
2018-06-28T00:41:56.405Z,101078.22
2018-06-28T00:44:24.356Z,101074.89
2018-06-28T00:46:52.953Z,101076.66
2018-06-28T00:49:20.944Z,101085.00
2018-06-28T00:51:48.929Z,101076.71
2018-06-28T00:54:16.789Z,101078.66
2018-06-28T00:56:44.661Z,101077.61
2018-06-28T00:59:12.618Z,101073.30
2018-06-28T01:01:40.514Z,101074.14
2018-06-28T01:04:08.402Z,101071.19
2018-06-28T01:06:36.371Z,101065.13
2018-06-28T01:09:08.209Z,101066.77
2018-06-28T01:11:36.301Z,101063.93
2018-06-28T01:14:04.298Z,101071.19
2018-06-28T01:16:32.314Z,101063.38
2018-06-28T01:19:00.245Z,101062.16
2018-06-28T01:21:28.166Z,101063.27
2018-06-28T01:23:56.223Z,101060.06
2018-06-28T01:26:24.119Z,101065.02
2018-06-28T01:28:52.140Z,101057.05
2018-06-28T01:31:20.073Z,101058.79
2018-06-28T01:33:48.056Z,101062.02
2018-06-28T01:36:16.073Z,101054.80
2018-06-28T01:38:44.006Z,101055.66
2018-06-28T01:41:11.957Z,101068.42
2018-06-28T01:43:42.872Z,101056.69
2018-06-28T01:46:10.865Z,101064.48
2018-06-28T01:48:38.851Z,101064.11
2018-06-28T01:51:06.857Z,101063.11
2018-06-28T01:53:34.776Z,101063.37
2018-06-28T01:56:02.858Z,101062.28
2018-06-28T01:58:30.872Z,101066.32
2018-06-28T02:01:02.609Z,101060.78
2018-06-28T02:03:30.576Z,101058.31
2018-06-28T02:05:58.537Z,101061.61
2018-06-28T02:08:26.441Z,101055.79
2018-06-28T02:10:54.391Z,101054.80
2018-06-28T02:13:22.261Z,101053.42
2018-06-28T02:15:50.258Z,101055.03
2018-06-28T02:18:18.241Z,101047.86
2018-06-28T02:20:46.167Z,101050.39
2018-06-28T02:23:14.111Z,101044.50
2018-06-28T02:25:42.017Z,101039.12
2018-06-28T02:28:09.996Z,101032.76
2018-06-28T02:30:37.941Z,101038.30
2018-06-28T02:33:05.885Z,101034.97
2018-06-28T02:35:33.746Z,101034.13
2018-06-28T02:38:01.942Z,101039.92
2018-06-28T02:40:29.905Z,101041.78
2018-06-28T02:42:57.802Z,101036.56
2018-06-28T02:45:25.701Z,101036.78
2018-06-28T02:47:53.617Z,101038.03
2018-06-28T02:50:21.576Z,101037.96
2018-06-28T02:52:49.474Z,101042.34
2018-06-28T02:55:17.452Z,101041.47
2018-06-28T02:57:45.434Z,101041.22
2018-06-28T03:00:13.408Z,101041.00
2018-06-28T03:02:41.378Z,101040.28
2018-06-28T03:05:09.363Z,101048.50
2018-06-28T03:07:37.269Z,101039.64
2018-06-28T03:10:05.350Z,101042.39
2018-06-28T03:12:33.225Z,101047.02
2018-06-28T03:15:01.157Z,101046.52
2018-06-28T03:17:29.071Z,101046.77
2018-06-28T03:19:56.952Z,101041.52
2018-06-28T03:22:24.848Z,101049.38
2018-06-28T03:24:52.797Z,101047.81
2018-06-28T03:27:20.749Z,101046.38
2018-06-28T03:29:48.706Z,101048.87
2018-06-28T03:32:16.677Z,101053.25
2018-06-28T03:34:44.542Z,101053.71
2018-06-28T03:37:12.549Z,101046.48
2018-06-28T03:39:40.429Z,101054.58
2018-06-28T03:42:08.397Z,101049.59
2018-06-28T03:44:36.281Z,101054.91
2018-06-28T03:47:04.490Z,101057.44
2018-06-28T03:49:32.330Z,101055.52
2018-06-28T03:52:00.312Z,101053.61
2018-06-28T03:54:28.223Z,101058.49
2018-06-28T03:56:57.580Z,101058.31
2018-06-28T03:59:25.638Z,101054.03
2018-06-28T04:01:53.546Z,101049.37
2018-06-28T04:04:21.430Z,101053.05
2018-06-28T04:06:49.418Z,101051.39
2018-06-28T04:09:17.306Z,101049.03
2018-06-28T04:11:45.203Z,101059.37
2018-06-28T04:14:13.110Z,101052.05
2018-06-28T04:16:40.997Z,101054.83
2018-06-28T04:19:08.951Z,101053.55
2018-06-28T04:21:36.862Z,101053.14
2018-06-28T04:24:04.818Z,101053.48
2018-06-28T04:26:32.749Z,101057.17
2018-06-28T04:29:00.607Z,101059.59
2018-06-28T04:31:28.574Z,101060.86
2018-06-28T04:33:56.637Z,101063.16
2018-06-28T04:36:24.577Z,101059.71
2018-06-28T04:38:52.422Z,101058.22
2018-06-28T04:41:20.335Z,101056.41
2018-06-28T04:43:48.277Z,101059.03
2018-06-28T04:46:16.594Z,101064.16
2018-06-28T04:48:44.615Z,101063.03
2018-06-28T04:51:12.654Z,101062.25
2018-06-28T04:53:40.725Z,101056.14
2018-06-28T04:56:08.678Z,101053.35
2018-06-28T04:58:36.602Z,101050.84
2018-06-28T05:01:04.551Z,101048.84
2018-06-28T05:03:32.630Z,101046.31
2018-06-28T05:06:00.507Z,101050.82
2018-06-28T05:08:28.414Z,101045.92
2018-06-28T05:10:56.338Z,101047.25
2018-06-28T05:13:24.250Z,101045.75
2018-06-28T05:15:52.287Z,101045.27
2018-06-28T05:18:20.232Z,101043.97
2018-06-28T05:20:48.215Z,101042.57
2018-06-28T05:23:16.292Z,101039.72
2018-06-28T05:25:45.094Z,101030.44
2018-06-28T05:28:13.599Z,101035.22
2018-06-28T05:30:41.617Z,101037.42
2018-06-28T05:33:09.589Z,101029.03
2018-06-28T05:35:37.591Z,101026.87
2018-06-28T05:38:05.520Z,101030.23
2018-06-28T05:40:33.507Z,101022.34
2018-06-28T05:43:01.518Z,101018.16
2018-06-28T05:45:29.462Z,101018.17
2018-06-28T05:47:57.368Z,101018.08
2018-06-28T05:50:25.247Z,101015.00
2018-06-28T05:52:53.202Z,101014.56
2018-06-28T05:55:21.178Z,101016.91
2018-06-28T05:57:49.090Z,101016.34
2018-06-28T06:00:17.797Z,101022.84
2018-06-28T06:02:45.994Z,101013.34
2018-06-28T06:05:15.542Z,101022.77
2018-06-28T06:07:43.498Z,101028.15
2018-06-28T06:10:11.779Z,101027.75
2018-06-28T06:12:39.658Z,101032.60
2018-06-28T06:15:07.902Z,101032.56
2018-06-28T06:17:36.100Z,101030.06
2018-06-28T06:20:04.466Z,101030.06
2018-06-28T06:22:32.635Z,101025.56
2018-06-28T06:25:01.025Z,101021.98
2018-06-28T06:27:28.969Z,101025.12
2018-06-28T06:29:56.870Z,101017.78
2018-06-28T06:32:24.785Z,101012.42
2018-06-28T06:34:52.748Z,101016.64
2018-06-28T06:37:20.650Z,101018.03
2018-06-28T06:39:48.565Z,101015.95
2018-06-28T06:42:16.509Z,101017.73
2018-06-28T06:44:44.433Z,101018.89
2018-06-28T06:47:12.301Z,101023.98
2018-06-28T06:49:40.205Z,101023.05
2018-06-28T06:52:08.167Z,101020.20
2018-06-28T06:54:36.066Z,101012.87
2018-06-28T06:57:04.398Z,101016.06
2018-06-28T06:59:32.222Z,101011.95
2018-06-28T07:02:00.159Z,101002.20
2018-06-28T07:04:28.072Z,101003.08
2018-06-28T07:06:56.090Z,100998.22
2018-06-28T07:09:24.141Z,101002.67
2018-06-28T07:11:52.074Z,100993.42
2018-06-28T07:14:20.892Z,100998.17
2018-06-28T07:16:49.063Z,100991.19
2018-06-28T07:19:16.985Z,100995.42
2018-06-28T07:21:44.995Z,100984.53
2018-06-28T07:24:13.019Z,100997.23
2018-06-28T07:26:40.941Z,100990.92
2018-06-28T07:29:08.845Z,100996.00
2018-06-28T07:31:36.781Z,100991.28
2018-06-28T07:34:05.071Z,100995.42
2018-06-28T07:36:33.368Z,100985.50
2018-06-28T07:39:09.576Z,100987.23
2018-06-28T07:41:37.814Z,100982.82
2018-06-28T07:44:08.412Z,100982.88
2018-06-28T07:46:36.533Z,100984.28
2018-06-28T07:49:12.415Z,100975.00
2018-06-28T07:51:43.524Z,100972.91
2018-06-28T07:54:11.411Z,100970.66
2018-06-28T07:56:39.352Z,100964.38
2018-06-28T07:59:08.745Z,100972.89
2018-06-28T08:01:38.964Z,100967.58
2018-06-28T08:04:06.991Z,100967.70
2018-06-28T08:06:34.918Z,100967.06
2018-06-28T08:09:04.093Z,100966.89
2018-06-28T08:11:32.282Z,100964.67
2018-06-28T08:14:02.086Z,100953.91
2018-06-28T08:16:31.523Z,100954.80
2018-06-28T08:19:00.934Z,100956.77
2018-06-28T08:21:29.132Z,100952.95
2018-06-28T08:23:57.842Z,100959.06
2018-06-28T08:26:25.814Z,100954.67
2018-06-28T08:28:53.695Z,100957.30
2018-06-28T08:31:22.394Z,100952.33
2018-06-28T08:33:50.348Z,100950.27
2018-06-28T08:36:18.282Z,100948.20
2018-06-28T08:38:46.201Z,100954.30
2018-06-28T08:41:14.598Z,100941.16
2018-06-28T08:43:42.573Z,100948.74
2018-06-28T08:46:10.502Z,100950.23
2018-06-28T08:48:38.462Z,100941.85
2018-06-28T08:51:06.298Z,100940.23
2018-06-28T08:53:34.219Z,100935.13
2018-06-28T08:56:02.125Z,100944.78
2018-06-28T08:58:30.090Z,100940.11
2018-06-28T09:00:58.021Z,100935.46
2018-06-28T09:03:25.955Z,100922.63
2018-06-28T09:05:53.913Z,100928.22
2018-06-28T09:08:21.810Z,100928.71
2018-06-28T09:10:49.713Z,100920.50
2018-06-28T09:13:17.540Z,100919.03
2018-06-28T09:15:45.469Z,100914.59
2018-06-28T09:18:13.340Z,100919.70
2018-06-28T09:20:42.213Z,100920.86
2018-06-28T09:23:10.246Z,100909.99
2018-06-28T09:25:38.197Z,100907.11
2018-06-28T09:28:06.121Z,100907.85
2018-06-28T09:30:34.031Z,100908.59
2018-06-28T09:33:01.925Z,100896.70
2018-06-28T09:35:29.913Z,100906.91
2018-06-28T09:37:57.837Z,100904.98
2018-06-28T09:40:25.789Z,100891.61
2018-06-28T09:42:53.713Z,100887.36
2018-06-28T09:45:21.709Z,100901.05
2018-06-28T09:47:49.674Z,100895.61
2018-06-28T09:50:17.570Z,100884.72
2018-06-28T09:52:45.463Z,100886.06
2018-06-28T09:55:13.449Z,100874.73
2018-06-28T09:57:43.789Z,100881.58
2018-06-28T10:00:11.778Z,100884.20
2018-06-28T10:02:39.654Z,100884.81
2018-06-28T10:05:11.323Z,100871.30
2018-06-28T10:07:39.147Z,100874.23
2018-06-28T10:10:07.067Z,100868.38
2018-06-28T10:12:35.026Z,100864.91
2018-06-28T10:15:02.958Z,100857.36
2018-06-28T10:17:30.833Z,100858.13
2018-06-28T10:19:58.653Z,100855.30
2018-06-28T10:22:26.596Z,100858.95
2018-06-28T10:24:54.508Z,100848.11
2018-06-28T10:27:22.369Z,100850.95
2018-06-28T10:29:50.364Z,100858.94
2018-06-28T10:32:18.341Z,100836.53
2018-06-28T10:34:46.212Z,100839.55
2018-06-28T10:37:14.089Z,100831.27
2018-06-28T10:39:41.971Z,100827.68
2018-06-28T10:42:09.899Z,100825.03
2018-06-28T10:44:37.788Z,100836.13
2018-06-28T10:47:05.643Z,100827.91
2018-06-28T10:49:33.507Z,100820.50
2018-06-28T10:52:01.346Z,100809.14
2018-06-28T10:54:29.185Z,100802.27
2018-06-28T10:56:57.105Z,100798.38
2018-06-28T10:59:24.993Z,100803.98
2018-06-28T11:01:52.962Z,100794.86
2018-06-28T11:04:20.861Z,100795.35
2018-06-28T11:06:48.757Z,100792.58
2018-06-28T11:09:16.650Z,100796.77
2018-06-28T11:11:44.532Z,100788.62
2018-06-28T11:14:12.481Z,100789.22
2018-06-28T11:16:40.350Z,100782.21
2018-06-28T11:19:08.188Z,100781.88
2018-06-28T11:21:36.113Z,100785.00
2018-06-28T11:24:04.090Z,100775.53
2018-06-28T11:26:32.009Z,100764.90
2018-06-28T11:28:59.849Z,100758.26
2018-06-28T11:31:27.728Z,100764.36
2018-06-28T11:33:55.601Z,100770.09
2018-06-28T11:36:23.566Z,100759.16
2018-06-28T11:38:51.443Z,100758.39
2018-06-28T11:41:19.337Z,100751.09
2018-06-28T11:43:47.178Z,100747.69
2018-06-28T11:46:15.025Z,100756.20
2018-06-28T11:48:42.860Z,100747.12
2018-06-28T11:51:10.688Z,100746.05
2018-06-28T11:53:38.608Z,100752.34
2018-06-28T11:56:06.606Z,100742.70
2018-06-28T11:58:34.729Z,100751.35
2018-06-28T12:01:02.698Z,100735.03
2018-06-28T12:03:30.605Z,100731.66
2018-06-28T12:05:58.526Z,100739.56
2018-06-28T12:08:26.390Z,100736.32
2018-06-28T12:10:54.340Z,100726.52
2018-06-28T12:13:22.203Z,100724.42
2018-06-28T12:15:50.053Z,100728.52
2018-06-28T12:18:17.913Z,100718.44
2018-06-28T12:20:45.825Z,100717.22
2018-06-28T12:23:13.617Z,100714.34
2018-06-28T12:25:41.489Z,100707.25
2018-06-28T12:28:09.377Z,100698.72
2018-06-28T12:30:39.105Z,100703.79
2018-06-28T12:33:07.041Z,100708.84
2018-06-28T12:35:34.951Z,100704.33
2018-06-28T12:38:02.906Z,100700.10
2018-06-28T12:40:30.900Z,100699.78
2018-06-28T12:42:58.699Z,100701.41
2018-06-28T12:45:26.577Z,100692.72
2018-06-28T12:48:12.941Z,100697.77
2018-06-28T12:50:40.837Z,100695.81
2018-06-28T12:53:09.890Z,100686.88
2018-06-28T12:56:26.088Z,100687.48
2018-06-28T12:58:55.252Z,100684.44
2018-06-28T13:01:24.157Z,100669.59
2018-06-28T13:03:52.140Z,100675.69
2018-06-28T13:06:20.325Z,100671.42
2018-06-28T13:08:48.598Z,100664.50
2018-06-28T13:11:16.506Z,100660.86
2018-06-28T13:13:44.368Z,100660.05
2018-06-28T13:16:13.624Z,100652.52
2018-06-28T13:18:41.895Z,100646.53
2018-06-28T13:21:10.078Z,100650.58
2018-06-28T13:23:38.066Z,100652.62
2018-06-28T13:26:06.046Z,100645.95
2018-06-28T13:28:33.980Z,100653.00
2018-06-28T13:31:01.805Z,100647.22
2018-06-28T13:33:29.834Z,100635.86
2018-06-28T13:35:57.852Z,100633.55
2018-06-28T13:38:26.026Z,100634.38
2018-06-28T13:40:54.148Z,100629.16
2018-06-28T13:43:22.177Z,100625.48
2018-06-28T13:45:50.043Z,100615.94
2018-06-28T13:48:18.433Z,100615.98
2018-06-28T13:50:46.372Z,100625.48
2018-06-28T13:53:14.346Z,100623.16
2018-06-28T13:55:42.177Z,100624.94
2018-06-28T13:58:10.089Z,100627.88
2018-06-28T14:00:38.085Z,100621.13
2018-06-28T14:03:06.112Z,100619.98
2018-06-28T14:05:33.881Z,100621.91
2018-06-28T14:08:01.840Z,100620.50
2018-06-28T14:10:29.686Z,100614.82
2018-06-28T14:12:57.502Z,100612.55
2018-06-28T14:15:25.368Z,100610.55
2018-06-28T14:17:53.229Z,100604.10
2018-06-28T14:20:21.196Z,100601.02
2018-06-28T14:22:49.153Z,100596.59
2018-06-28T14:25:16.965Z,100595.77
2018-06-28T14:27:45.090Z,100584.89
2018-06-28T14:30:13.726Z,100593.45
2018-06-28T14:32:42.898Z,100589.08
2018-06-28T14:35:11.398Z,100589.36
2018-06-28T14:37:40.408Z,100588.48
2018-06-28T14:40:08.989Z,100589.15
2018-06-28T14:42:37.072Z,100580.60
2018-06-28T14:45:05.696Z,100583.88
2018-06-28T14:47:33.526Z,100576.44
2018-06-28T14:50:01.564Z,100576.41
2018-06-28T14:52:29.581Z,100571.83
2018-06-28T14:54:57.512Z,100570.28
2018-06-28T14:57:25.657Z,100568.66
2018-06-28T14:59:53.580Z,100557.95
2018-06-28T15:02:26.757Z,100565.02
2018-06-28T15:04:54.677Z,100565.40
2018-06-28T15:07:22.632Z,100571.30
2018-06-28T15:09:50.537Z,100563.77
2018-06-28T15:12:18.444Z,100563.02
2018-06-28T15:14:46.393Z,100562.63
2018-06-28T15:17:14.297Z,100559.80
2018-06-28T15:19:42.201Z,100557.58
2018-06-28T15:22:10.081Z,100557.03
2018-06-28T15:24:37.977Z,100547.61
2018-06-28T15:27:05.890Z,100555.74
2018-06-28T15:29:34.034Z,100551.19
2018-06-28T15:32:02.007Z,100547.38
2018-06-28T15:34:30.064Z,100543.68
2018-06-28T15:36:58.028Z,100545.00
2018-06-28T15:39:26.406Z,100550.70
2018-06-28T15:41:54.396Z,100545.66
2018-06-28T15:44:22.304Z,100538.25
2018-06-28T15:46:50.221Z,100536.75
2018-06-28T15:49:18.383Z,100534.15
2018-06-28T15:51:46.321Z,100535.12
2018-06-28T15:54:14.197Z,100536.05
2018-06-28T15:56:42.279Z,100535.41
2018-06-28T15:59:10.238Z,100529.92
2018-06-28T16:01:39.813Z,100541.84
2018-06-28T16:04:07.850Z,100528.95
2018-06-28T16:06:37.857Z,100537.41
2018-06-28T16:09:10.906Z,100534.91
2018-06-28T16:11:39.313Z,100525.41
2018-06-28T16:14:08.021Z,100520.27
2018-06-28T16:16:35.955Z,100525.73
2018-06-28T16:19:11.917Z,100520.91
2018-06-28T16:21:44.910Z,100517.28
2018-06-28T16:24:12.889Z,100522.20
2018-06-28T16:26:40.854Z,100517.69
2018-06-28T16:29:08.825Z,100525.97
2018-06-28T16:31:36.761Z,100521.52
2018-06-28T16:34:04.749Z,100527.69
2018-06-28T16:36:32.718Z,100518.66
2018-06-28T16:39:00.612Z,100530.83
2018-06-28T16:41:28.548Z,100528.23
2018-06-28T16:43:56.402Z,100527.41
2018-06-28T16:46:24.300Z,100528.84
2018-06-28T16:48:52.219Z,100519.08
2018-06-28T16:51:20.142Z,100525.84
2018-06-28T16:53:48.077Z,100528.31
2018-06-28T16:56:16.006Z,100529.03
2018-06-28T16:58:43.967Z,100531.45
2018-06-28T17:01:11.873Z,100527.16
2018-06-28T17:03:39.981Z,100526.94
2018-06-28T17:06:11.915Z,100521.09
2018-06-28T17:08:39.813Z,100529.27
2018-06-28T17:11:07.713Z,100525.84
2018-06-28T17:13:35.681Z,100526.47
2018-06-28T17:16:03.975Z,100529.38
2018-06-28T17:18:31.846Z,100521.95
2018-06-28T17:20:59.782Z,100519.25
2018-06-28T17:23:28.009Z,100518.75
2018-06-28T17:25:55.897Z,100515.33
2018-06-28T17:28:23.746Z,100514.67
2018-06-28T17:30:51.642Z,100521.73
2018-06-28T17:33:19.501Z,100521.86
2018-06-28T17:35:47.389Z,100518.33
2018-06-28T17:38:16.667Z,100518.20
2018-06-28T17:40:44.610Z,100519.53
2018-06-28T17:43:13.629Z,100517.41
2018-06-28T17:45:41.497Z,100522.41
2018-06-28T17:48:09.401Z,100517.91
2018-06-28T17:50:37.330Z,100522.11
2018-06-28T17:53:05.196Z,100517.40
2018-06-28T17:55:33.045Z,100524.78
2018-06-28T17:58:00.956Z,100520.33
2018-06-28T18:00:29.445Z,100526.66
2018-06-28T18:02:57.453Z,100523.78
2018-06-28T18:05:25.418Z,100523.84
2018-06-28T18:07:53.313Z,100520.84
2018-06-28T18:10:21.261Z,100522.84
2018-06-28T18:12:50.046Z,100524.20
2018-06-28T18:15:17.983Z,100516.20
2018-06-28T18:17:45.886Z,100521.66
2018-06-28T18:20:13.754Z,100524.83
2018-06-28T18:22:41.640Z,100528.37
2018-06-28T18:25:09.523Z,100522.38
2018-06-28T18:27:37.459Z,100520.53
2018-06-28T18:30:05.401Z,100520.73
2018-06-28T18:32:33.328Z,100523.91
2018-06-28T18:35:01.298Z,100531.89
2018-06-28T18:37:29.221Z,100532.34
2018-06-28T18:39:57.232Z,100530.46
2018-06-28T18:42:25.073Z,100537.25
2018-06-28T18:44:53.044Z,100538.06
2018-06-28T18:47:20.968Z,100538.34
2018-06-28T18:49:48.833Z,100535.69
2018-06-28T18:52:16.749Z,100537.41
2018-06-28T18:54:44.699Z,100547.00
2018-06-28T18:57:12.652Z,100539.27
2018-06-28T18:59:41.533Z,100545.23
2018-06-28T19:02:10.110Z,100546.50
2018-06-28T19:04:38.231Z,100555.16
2018-06-28T19:07:06.605Z,100550.92
2018-06-28T19:09:41.402Z,100547.53
2018-06-28T19:12:09.429Z,100551.25
2018-06-28T19:14:43.250Z,100551.88
2018-06-28T19:17:15.607Z,100560.49
2018-06-28T19:19:45.564Z,100560.34
2018-06-28T19:22:21.560Z,100561.71
2018-06-28T19:24:50.895Z,100555.40
2018-06-28T19:27:18.760Z,100554.31
2018-06-28T19:29:52.254Z,100562.30
2018-06-28T19:32:25.930Z,100555.14
2018-06-28T19:34:53.878Z,100561.91
2018-06-28T19:37:27.998Z,100569.62
2018-06-28T19:40:01.802Z,100566.08
2018-06-28T19:42:37.313Z,100568.77
2018-06-28T19:45:05.461Z,100576.99
2018-06-28T19:47:33.592Z,100578.27
2018-06-28T19:50:08.217Z,100578.80
2018-06-28T19:52:41.901Z,100575.66
2018-06-28T19:55:09.769Z,100579.27
2018-06-28T19:57:38.089Z,100584.48
2018-06-28T20:00:06.647Z,100585.92
2018-06-28T20:02:40.139Z,100587.27
2018-06-28T20:05:07.987Z,100584.34
2018-06-28T20:07:35.905Z,100584.52
2018-06-28T20:10:04.230Z,100592.02
2018-06-28T20:12:37.872Z,100594.58
2018-06-28T20:15:11.609Z,100592.84
2018-06-28T20:17:56.900Z,100596.06
2018-06-28T20:20:27.934Z,100597.39
2018-06-28T20:22:56.550Z,100600.19
2018-06-28T20:25:24.545Z,100604.14
2018-06-28T20:27:58.344Z,100605.55
2018-06-28T20:30:31.903Z,100605.47
2018-06-28T20:33:05.561Z,100600.31
2018-06-28T20:35:33.634Z,100604.91
2018-06-28T20:38:01.480Z,100603.13
2018-06-28T20:40:30.578Z,100626.81
2018-06-28T20:42:58.552Z,100625.84
2018-06-28T20:45:26.525Z,100630.93
2018-06-28T20:47:54.613Z,100629.78
2018-06-28T20:50:23.207Z,100625.75
2018-06-28T20:52:51.153Z,100638.19
2018-06-28T20:55:19.166Z,100639.92
2018-06-28T20:57:47.093Z,100639.25
2018-06-28T21:00:15.135Z,100643.84
2018-06-28T21:02:43.138Z,100646.06
2018-06-28T21:05:14.151Z,100644.76
2018-06-28T21:07:43.605Z,100645.06
2018-06-28T21:10:11.590Z,100641.41
2018-06-28T21:12:39.493Z,100637.95
2018-06-28T21:15:11.259Z,100642.23
2018-06-28T21:17:39.318Z,100643.47
2018-06-28T21:20:07.233Z,100645.84
2018-06-28T21:22:35.120Z,100647.23
2018-06-28T21:25:03.157Z,100644.83
2018-06-28T21:27:31.058Z,100644.73
2018-06-28T21:29:58.981Z,100641.02
2018-06-28T21:32:26.931Z,100642.11
2018-06-28T21:34:54.909Z,100649.73
2018-06-28T21:37:22.765Z,100647.36
2018-06-28T21:39:50.681Z,100641.24
2018-06-28T21:42:18.642Z,100643.63
2018-06-28T21:44:48.817Z,100641.36
2018-06-28T21:47:18.777Z,100642.60
2018-06-28T21:49:46.692Z,100639.37
2018-06-28T21:52:16.824Z,100633.64
2018-06-28T21:54:46.078Z,100638.16
2018-06-28T21:57:13.953Z,100631.27
2018-06-28T21:59:42.408Z,100635.25
2018-06-28T22:02:14.613Z,100641.17
2018-06-28T22:04:42.568Z,100638.15
2018-06-28T22:07:10.601Z,100635.60
2018-06-28T22:09:40.693Z,100634.67
2018-06-28T22:12:11.078Z,100635.23
2018-06-28T22:14:41.425Z,100630.31
2018-06-28T22:17:13.808Z,100634.88
2018-06-28T22:19:42.509Z,100635.78
2018-06-28T22:22:10.448Z,100636.48
2018-06-28T22:24:38.780Z,100631.80
2018-06-28T22:27:07.312Z,100638.33
2018-06-28T22:29:36.232Z,100631.67
2018-06-28T22:32:08.015Z,100635.48
2018-06-28T22:34:37.145Z,100633.07
2018-06-28T22:37:06.267Z,100625.60
2018-06-28T22:39:37.318Z,100629.01
2018-06-28T22:42:05.278Z,100620.14
2018-06-28T22:44:33.110Z,100624.81
2018-06-28T22:47:01.056Z,100626.50
2018-06-28T22:49:28.974Z,100622.77
2018-06-28T22:51:56.805Z,100620.92
2018-06-28T22:54:24.715Z,100626.52
2018-06-28T22:56:52.603Z,100613.83
2018-06-28T22:59:24.542Z,100613.00
2018-06-28T23:01:52.445Z,100614.84
2018-06-28T23:04:20.384Z,100607.94
2018-06-28T23:06:48.313Z,100612.77
2018-06-28T23:09:16.207Z,100613.50
2018-06-28T23:11:44.145Z,100612.73
2018-06-28T23:14:12.112Z,100605.40
2018-06-28T23:16:40.024Z,100610.66
2018-06-28T23:19:08.088Z,100611.77
2018-06-28T23:21:35.973Z,100602.80
2018-06-28T23:24:04.062Z,100600.85
2018-06-28T23:26:31.929Z,100600.58
2018-06-28T23:28:59.754Z,100596.08
2018-06-28T23:31:27.678Z,100598.61
2018-06-28T23:33:55.614Z,100596.05
2018-06-28T23:36:23.517Z,100595.00
2018-06-28T23:38:51.401Z,100592.79
2018-06-28T23:41:20.324Z,100595.25
2018-06-28T23:43:58.549Z,100591.19
2018-06-28T23:46:26.385Z,100589.54
2018-06-28T23:48:54.320Z,100589.16
2018-06-28T23:51:22.202Z,100587.44
2018-06-28T23:53:50.341Z,100591.12
2018-06-28T23:56:18.215Z,100589.16
2018-06-28T23:58:46.111Z,100590.80
